Архив погоды в Волжской ГМО

Метеограмма Волжская ГМО
Четверг, 18 Октября
Время местн. Темп Ветер Видим Явления Облачность нижн/средн/верх Атм. давл. Влжн Точка росы ВНГО R Сост. почвы Tg s
Напр Скр Прв ур.ст ур.м изм
00:00 +1.5° штиль 0 0 10 км - ясно 761 771 0 96% +1° более 2.5 км - - - -
Среда, 17 Октября
Время местн. Темп Ветер Видим Явления Облачность нижн/средн/верх Атм. давл. Влжн Точка росы ВНГО R Сост. почвы Tg s
Напр Скр Прв ур.ст ур.м изм
21:00 +5.2° штиль 0 0 10 км - ясно 761 770 +0.6 88% +3.3° более 2.5 км - - - -
18:00 +10.1° В,С-В 1 1 10 км - ясно 760 770 +0.8 65% +3.8° более 2.5 км - - - -
15:00 +13.3° С 2 3 20 км - незначительная облачность 759 769 +1 56% +4.6° более 2.5 км - - - -
12:00 +12.2° С,С-З 3 3 50 км - переменная облачность 758 768 +1.2 67% +6.2° 600 м - - - -
09:00 +9.6° С-З 2 2 50 км - переменная облачность 757 767 +1.4 78% +5.9° более 2.5 км - - - -
06:00 +8.1° З,С-З 2 4 10 км - ясно 756 765 +0.8 81% +5.1° более 2.5 км - Влажная (без луж) - -
03:00 +9.3° З 3 5 10 км - ясно 755 765 -0.3 73% +4.8° более 2.5 км - - - -
00:00 +8.2° З 1 2 10 км - переменная облачность 755 765 -0.7 85% +5.8° более 2.5 км - - - -
Вторник, 16 Октября
Время местн. Темп Ветер Видим Явления Облачность нижн/средн/верх Атм. давл. Влжн Точка росы ВНГО R Сост. почвы Tg s
Напр Скр Прв ур.ст ур.м изм
21:00 +9.8° З 1 2 10 км - переменная облачность 756 765 -0.9 80% +6.5° более 2.5 км - - - -
18:00 +11.8° З 1 1 10 км - облачно с прояснениями 757 766 -0.6 72% +7° более 2.5 км - - - -
15:00 +14.6° З 1 3 20 км - преимущественно облачно 758 767 -0.7 69% +8.9° более 2.5 км - - - -
12:00 +11.9° З 1 2 20 км - облачно с прояснениями 758 768 -0.2 75% +7.6° более 2.5 км - - - -
09:00 +8.4° З 2 3 20 км - переменная облачность 758 768 -0.2 93% +7.3° более 2.5 км - - - -
06:00 +8.3° З,С-З 2 3 10 км - ясно 759 768 +0.1 96% +7.7° более 2.5 км - Влажная (без луж) - -
03:00 +9.3° З,С-З 2 3 10 км - ясно 759 768 +0.1 95% +8.5° более 2.5 км - - - -
00:00 +10.6° З,С-З 1 2 10 км - ясно 758 768 +0.2 85% +8.1° более 2.5 км - - - -
Понедельник, 15 Октября
Время местн. Темп Ветер Видим Явления Облачность нижн/средн/верх Атм. давл. Влжн Точка росы ВНГО R Сост. почвы Tg s
Напр Скр Прв ур.ст ур.м изм
21:00 +11.3° З 1 1 10 км - ясно 758 768 +0.2 83% +8.6° более 2.5 км - - - -
18:00 +15.3° З,С-З 1 2 10 км - ясно 758 767 +0.4 64% +8.6° более 2.5 км - - - -
15:00 +17.7° З,С-З 2 2 20 км - ясно 758 767 -0.1 61% +10° более 2.5 км - - - -
12:00 +15.9° С-З 2 2 10 км - ясно 758 767 +0.3 72% +10.9° более 2.5 км - - - -
09:00 +12.4° З 3 3 10 км - облачно 758 767 +0.5 87% +10.3° 600 м - - - -
06:00 +12.4° З,С-З 2 4 10 км - облачно 757 766 +0.5 88% +10.5° 600 м - Влажная (без луж) - -
03:00 +11.1° З,С-З 1 3 10 км - облачно 757 766 +0.2 94% +10.2° 600 м - - - -
00:00 +10.1° З 1 3 10 км - облачно 756 766 -0.3 95% +9.3° 600 м - - - -
Воскресенье, 14 Октября
Время местн. Темп Ветер Видим Явления Облачность нижн/средн/верх Атм. давл. Влжн Точка росы ВНГО R Сост. почвы Tg s
Напр Скр Прв ур.ст ур.м изм
21:00 +9.2° З 2 2 10 км небо без изменений {дождь} облачно 757 766 -0.8 96% +8.6° 600 м - - - -